sensor_id;sensor_type;location;lat;lon;timestamp;P1;P2;P0
62631;PMS5003;48703;51.248;-0.546;2023-11-22T00:02:50;5.29;3.89;
62631;PMS5003;48703;51.248;-0.546;2023-11-22T00:05:51;4.19;3.13;
62631;PMS5003;48703;51.248;-0.546;2023-11-22T00:08:53;4.70;4.21;
62631;PMS5003;48703;51.248;-0.546;2023-11-22T00:11:55;4.46;3.29;
62631;PMS5003;48703;51.248;-0.546;2023-11-22T00:14:57;3.83;3.83;
62631;PMS5003;48703;51.248;-0.546;2023-11-22T00:17:58;4.30;3.77;
62631;PMS5003;48703;51.248;-0.546;2023-11-22T00:21:00;6.53;5.84;
62631;PMS5003;48703;51.248;-0.546;2023-11-22T00:24:02;7.10;6.41;
62631;PMS5003;48703;51.248;-0.546;2023-11-22T00:27:04;6.47;6.03;
62631;PMS5003;48703;51.248;-0.546;2023-11-22T00:30:06;5.70;4.93;
62631;PMS5003;48703;51.248;-0.546;2023-11-22T00:33:07;6.93;5.99;
62631;PMS5003;48703;51.248;-0.546;2023-11-22T00:36:09;4.69;4.39;
62631;PMS5003;48703;51.248;-0.546;2023-11-22T00:39:10;5.14;4.59;
62631;PMS5003;48703;51.248;-0.546;2023-11-22T00:42:12;5.21;4.66;
62631;PMS5003;48703;51.248;-0.546;2023-11-22T00:45:14;4.00;3.71;
62631;PMS5003;48703;51.248;-0.546;2023-11-22T00:48:15;3.40;3.24;
62631;PMS5003;48703;51.248;-0.546;2023-11-22T00:51:17;5.09;3.83;
62631;PMS5003;48703;51.248;-0.546;2023-11-22T00:54:19;5.54;4.39;
62631;PMS5003;48703;51.248;-0.546;2023-11-22T00:57:21;4.01;3.69;
62631;PMS5003;48703;51.248;-0.546;2023-11-22T01:00:22;4.34;4.34;
62631;PMS5003;48703;51.248;-0.546;2023-11-22T01:03:24;3.24;3.04;
62631;PMS5003;48703;51.248;-0.546;2023-11-22T01:06:26;3.87;3.61;
62631;PMS5003;48703;51.248;-0.546;2023-11-22T01:09:28;4.09;3.93;
62631;PMS5003;48703;51.248;-0.546;2023-11-22T01:12:29;4.46;3.46;
62631;PMS5003;48703;51.248;-0.546;2023-11-22T01:15:31;3.91;3.70;
62631;PMS5003;48703;51.248;-0.546;2023-11-22T01:18:33;5.36;3.79;
62631;PMS5003;48703;51.248;-0.546;2023-11-22T01:21:34;4.34;3.36;
62631;PMS5003;48703;51.248;-0.546;2023-11-22T01:24:36;3.71;3.46;
62631;PMS5003;48703;51.248;-0.546;2023-11-22T01:27:38;4.42;4.41;
62631;PMS5003;48703;51.248;-0.546;2023-11-22T01:30:39;3.84;3.46;
62631;PMS5003;48703;51.248;-0.546;2023-11-22T01:33:41;5.00;3.97;
62631;PMS5003;48703;51.248;-0.546;2023-11-22T01:36:43;4.10;2.34;
62631;PMS5003;48703;51.248;-0.546;2023-11-22T01:39:45;4.34;4.26;
62631;PMS5003;48703;51.248;-0.546;2023-11-22T01:42:46;4.84;4.41;
62631;PMS5003;48703;51.248;-0.546;2023-11-22T01:45:48;6.07;3.49;
62631;PMS5003;48703;51.248;-0.546;2023-11-22T01:48:50;4.89;3.83;
62631;PMS5003;48703;51.248;-0.546;2023-11-22T01:51:52;4.46;3.93;
62631;PMS5003;48703;51.248;-0.546;2023-11-22T01:54:54;4.29;4.29;
62631;PMS5003;48703;51.248;-0.546;2023-11-22T01:57:55;5.06;4.61;
62631;PMS5003;48703;51.248;-0.546;2023-11-22T02:00:57;5.07;4.40;
62631;PMS5003;48703;51.248;-0.546;2023-11-22T02:03:59;5.81;4.96;
62631;PMS5003;48703;51.248;-0.546;2023-11-22T02:07:02;3.60;3.30;
62631;PMS5003;48703;51.248;-0.546;2023-11-22T02:10:03;5.34;3.91;
62631;PMS5003;48703;51.248;-0.546;2023-11-22T02:13:04;5.04;4.71;
62631;PMS5003;48703;51.248;-0.546;2023-11-22T02:16:06;4.27;3.77;
62631;PMS5003;48703;51.248;-0.546;2023-11-22T02:19:09;4.89;4.66;
62631;PMS5003;48703;51.248;-0.546;2023-11-22T02:22:09;5.60;4.81;
62631;PMS5003;48703;51.248;-0.546;2023-11-22T02:25:11;6.36;4.81;
62631;PMS5003;48703;51.248;-0.546;2023-11-22T02:28:13;8.38;7.17;
62631;PMS5003;48703;51.248;-0.546;2023-11-22T02:31:14;6.59;6.20;
62631;PMS5003;48703;51.248;-0.546;2023-11-22T02:34:16;7.53;7.29;
62631;PMS5003;48703;51.248;-0.546;2023-11-22T02:37:18;6.83;6.83;
62631;PMS5003;48703;51.248;-0.546;2023-11-22T02:40:20;7.56;7.43;
62631;PMS5003;48703;51.248;-0.546;2023-11-22T02:43:22;7.13;6.39;
62631;PMS5003;48703;51.248;-0.546;2023-11-22T02:46:24;8.14;7.29;
62631;PMS5003;48703;51.248;-0.546;2023-11-22T02:49:25;8.59;6.83;
62631;PMS5003;48703;51.248;-0.546;2023-11-22T02:52:27;8.69;7.64;
62631;PMS5003;48703;51.248;-0.546;2023-11-22T02:55:30;7.81;7.01;
62631;PMS5003;48703;51.248;-0.546;2023-11-22T02:58:31;8.21;7.16;
62631;PMS5003;48703;51.248;-0.546;2023-11-22T03:01:33;8.25;7.03;
62631;PMS5003;48703;51.248;-0.546;2023-11-22T03:04:34;7.80;6.13;
62631;PMS5003;48703;51.248;-0.546;2023-11-22T03:07:36;10.16;8.49;
62631;PMS5003;48703;51.248;-0.546;2023-11-22T03:10:39;8.49;7.79;
62631;PMS5003;48703;51.248;-0.546;2023-11-22T03:13:40;8.53;7.17;
62631;PMS5003;48703;51.248;-0.546;2023-11-22T03:16:42;10.77;9.84;
62631;PMS5003;48703;51.248;-0.546;2023-11-22T03:19:44;9.14;7.91;
62631;PMS5003;48703;51.248;-0.546;2023-11-22T03:22:45;9.66;7.64;
62631;PMS5003;48703;51.248;-0.546;2023-11-22T03:25:47;9.77;8.36;
62631;PMS5003;48703;51.248;-0.546;2023-11-22T03:28:49;10.46;8.26;
62631;PMS5003;48703;51.248;-0.546;2023-11-22T03:31:50;7.51;6.99;
62631;PMS5003;48703;51.248;-0.546;2023-11-22T03:34:52;9.87;8.56;
62631;PMS5003;48703;51.248;-0.546;2023-11-22T03:37:54;7.46;6.30;
62631;PMS5003;48703;51.248;-0.546;2023-11-22T03:40:56;8.77;7.73;
62631;PMS5003;48703;51.248;-0.546;2023-11-22T03:43:57;8.54;7.50;
62631;PMS5003;48703;51.248;-0.546;2023-11-22T03:46:59;9.37;7.79;
62631;PMS5003;48703;51.248;-0.546;2023-11-22T03:50:01;9.27;7.76;
62631;PMS5003;48703;51.248;-0.546;2023-11-22T03:53:02;11.70;9.77;
62631;PMS5003;48703;51.248;-0.546;2023-11-22T03:56:04;11.69;9.49;
62631;PMS5003;48703;51.248;-0.546;2023-11-22T03:59:06;8.33;7.89;
62631;PMS5003;48703;51.248;-0.546;2023-11-22T04:02:08;7.76;7.47;
62631;PMS5003;48703;51.248;-0.546;2023-11-22T04:05:10;9.43;7.84;
62631;PMS5003;48703;51.248;-0.546;2023-11-22T04:08:11;9.43;8.63;
62631;PMS5003;48703;51.248;-0.546;2023-11-22T04:11:13;8.27;7.26;
62631;PMS5003;48703;51.248;-0.546;2023-11-22T04:14:15;8.61;7.99;
62631;PMS5003;48703;51.248;-0.546;2023-11-22T04:17:16;8.65;7.03;
62631;PMS5003;48703;51.248;-0.546;2023-11-22T04:20:17;7.44;7.01;
62631;PMS5003;48703;51.248;-0.546;2023-11-22T04:23:19;9.09;7.67;
62631;PMS5003;48703;51.248;-0.546;2023-11-22T04:26:21;7.21;6.17;
62631;PMS5003;48703;51.248;-0.546;2023-11-22T04:29:23;7.60;7.17;
62631;PMS5003;48703;51.248;-0.546;2023-11-22T04:32:24;7.47;6.97;
62631;PMS5003;48703;51.248;-0.546;2023-11-22T04:35:26;6.59;6.50;
62631;PMS5003;48703;51.248;-0.546;2023-11-22T04:38:28;8.29;7.27;
62631;PMS5003;48703;51.248;-0.546;2023-11-22T04:41:30;7.80;7.19;
62631;PMS5003;48703;51.248;-0.546;2023-11-22T04:44:31;6.06;5.66;
62631;PMS5003;48703;51.248;-0.546;2023-11-22T04:47:33;7.51;7.20;
62631;PMS5003;48703;51.248;-0.546;2023-11-22T04:50:35;5.87;5.73;
62631;PMS5003;48703;51.248;-0.546;2023-11-22T04:53:37;9.14;7.80;
62631;PMS5003;48703;51.248;-0.546;2023-11-22T04:56:39;7.53;6.67;
62631;PMS5003;48703;51.248;-0.546;2023-11-22T04:59:41;6.04;5.91;
62631;PMS5003;48703;51.248;-0.546;2023-11-22T05:02:42;7.29;6.74;
62631;PMS5003;48703;51.248;-0.546;2023-11-22T05:05:44;8.64;7.69;
62631;PMS5003;48703;51.248;-0.546;2023-11-22T05:08:46;7.93;6.73;
62631;PMS5003;48703;51.248;-0.546;2023-11-22T05:11:47;7.87;6.37;
62631;PMS5003;48703;51.248;-0.546;2023-11-22T05:14:49;6.80;6.13;
62631;PMS5003;48703;51.248;-0.546;2023-11-22T05:17:51;7.76;7.13;
62631;PMS5003;48703;51.248;-0.546;2023-11-22T05:20:53;7.24;6.60;
62631;PMS5003;48703;51.248;-0.546;2023-11-22T05:23:55;7.56;7.06;
62631;PMS5003;48703;51.248;-0.546;2023-11-22T05:26:57;8.21;7.41;
62631;PMS5003;48703;51.248;-0.546;2023-11-22T05:29:59;7.97;7.67;
62631;PMS5003;48703;51.248;-0.546;2023-11-22T05:33:00;9.07;7.44;
62631;PMS5003;48703;51.248;-0.546;2023-11-22T05:36:02;6.69;6.10;
62631;PMS5003;48703;51.248;-0.546;2023-11-22T05:39:04;8.21;8.21;
62631;PMS5003;48703;51.248;-0.546;2023-11-22T05:42:06;7.57;6.83;
62631;PMS5003;48703;51.248;-0.546;2023-11-22T05:45:08;7.26;7.26;
62631;PMS5003;48703;51.248;-0.546;2023-11-22T05:48:09;8.67;7.59;
62631;PMS5003;48703;51.248;-0.546;2023-11-22T05:51:11;8.30;7.01;
62631;PMS5003;48703;51.248;-0.546;2023-11-22T05:54:13;8.90;8.04;
62631;PMS5003;48703;51.248;-0.546;2023-11-22T05:57:14;8.31;7.51;
62631;PMS5003;48703;51.248;-0.546;2023-11-22T06:00:16;9.01;7.64;
62631;PMS5003;48703;51.248;-0.546;2023-11-22T06:03:18;9.84;9.20;
62631;PMS5003;48703;51.248;-0.546;2023-11-22T06:06:19;9.57;9.57;
62631;PMS5003;48703;51.248;-0.546;2023-11-22T06:09:21;11.23;9.41;
62631;PMS5003;48703;51.248;-0.546;2023-11-22T06:12:23;9.69;8.56;
62631;PMS5003;48703;51.248;-0.546;2023-11-22T06:15:25;11.86;11.23;
62631;PMS5003;48703;51.248;-0.546;2023-11-22T06:18:26;10.91;10.01;
62631;PMS5003;48703;51.248;-0.546;2023-11-22T06:21:28;8.77;8.23;
62631;PMS5003;48703;51.248;-0.546;2023-11-22T06:24:29;12.16;10.90;
62631;PMS5003;48703;51.248;-0.546;2023-11-22T06:27:31;10.90;9.72;
62631;PMS5003;48703;51.248;-0.546;2023-11-22T06:30:32;11.69;9.99;
62631;PMS5003;48703;51.248;-0.546;2023-11-22T06:33:34;13.01;11.06;
62631;PMS5003;48703;51.248;-0.546;2023-11-22T06:36:36;10.66;9.31;
62631;PMS5003;48703;51.248;-0.546;2023-11-22T06:39:38;12.17;11.47;
62631;PMS5003;48703;51.248;-0.546;2023-11-22T06:42:40;13.21;10.71;
62631;PMS5003;48703;51.248;-0.546;2023-11-22T06:45:42;11.34;10.91;
62631;PMS5003;48703;51.248;-0.546;2023-11-22T06:48:44;12.51;10.59;
62631;PMS5003;48703;51.248;-0.546;2023-11-22T06:51:46;12.00;10.93;
62631;PMS5003;48703;51.248;-0.546;2023-11-22T06:54:47;14.28;12.84;
62631;PMS5003;48703;51.248;-0.546;2023-11-22T06:57:48;13.87;12.80;
62631;PMS5003;48703;51.248;-0.546;2023-11-22T07:00:50;13.73;12.76;
62631;PMS5003;48703;51.248;-0.546;2023-11-22T07:03:51;15.88;14.03;
62631;PMS5003;48703;51.248;-0.546;2023-11-22T07:06:53;15.76;13.77;
62631;PMS5003;48703;51.248;-0.546;2023-11-22T07:09:55;15.71;13.74;
62631;PMS5003;48703;51.248;-0.546;2023-11-22T07:12:56;14.67;12.59;
62631;PMS5003;48703;51.248;-0.546;2023-11-22T07:15:58;16.94;12.96;
62631;PMS5003;48703;51.248;-0.546;2023-11-22T07:18:59;14.48;13.51;
62631;PMS5003;48703;51.248;-0.546;2023-11-22T07:22:01;17.96;16.22;
62631;PMS5003;48703;51.248;-0.546;2023-11-22T07:25:03;15.41;14.91;
62631;PMS5003;48703;51.248;-0.546;2023-11-22T07:28:04;18.89;17.04;
62631;PMS5003;48703;51.248;-0.546;2023-11-22T07:31:06;13.86;13.33;
62631;PMS5003;48703;51.248;-0.546;2023-11-22T07:34:07;19.51;16.65;
62631;PMS5003;48703;51.248;-0.546;2023-11-22T07:37:09;17.58;15.55;
62631;PMS5003;48703;51.248;-0.546;2023-11-22T07:40:11;18.40;15.64;
62631;PMS5003;48703;51.248;-0.546;2023-11-22T07:43:12;17.60;16.53;
62631;PMS5003;48703;51.248;-0.546;2023-11-22T07:46:14;14.81;14.39;
62631;PMS5003;48703;51.248;-0.546;2023-11-22T07:49:15;17.34;14.61;
62631;PMS5003;48703;51.248;-0.546;2023-11-22T07:52:17;19.86;16.45;
62631;PMS5003;48703;51.248;-0.546;2023-11-22T07:55:18;18.34;14.47;
62631;PMS5003;48703;51.248;-0.546;2023-11-22T07:58:21;19.87;17.46;
62631;PMS5003;48703;51.248;-0.546;2023-11-22T08:01:22;16.35;15.36;
62631;PMS5003;48703;51.248;-0.546;2023-11-22T08:04:23;18.22;16.87;
62631;PMS5003;48703;51.248;-0.546;2023-11-22T08:07:24;16.96;14.54;
62631;PMS5003;48703;51.248;-0.546;2023-11-22T08:10:26;20.46;16.96;
62631;PMS5003;48703;51.248;-0.546;2023-11-22T08:13:27;17.93;15.86;
62631;PMS5003;48703;51.248;-0.546;2023-11-22T08:16:29;16.87;16.45;
62631;PMS5003;48703;51.248;-0.546;2023-11-22T08:19:30;17.37;15.40;
62631;PMS5003;48703;51.248;-0.546;2023-11-22T08:22:31;16.99;13.87;
62631;PMS5003;48703;51.248;-0.546;2023-11-22T08:25:33;17.04;15.40;
62631;PMS5003;48703;51.248;-0.546;2023-11-22T08:28:34;18.36;16.33;
62631;PMS5003;48703;51.248;-0.546;2023-11-22T08:31:36;17.87;14.79;
62631;PMS5003;48703;51.248;-0.546;2023-11-22T08:34:37;14.50;12.60;
62631;PMS5003;48703;51.248;-0.546;2023-11-22T08:37:39;15.70;13.54;
62631;PMS5003;48703;51.248;-0.546;2023-11-22T08:40:40;17.17;14.13;
62631;PMS5003;48703;51.248;-0.546;2023-11-22T08:43:42;15.09;12.14;
62631;PMS5003;48703;51.248;-0.546;2023-11-22T08:46:43;16.90;14.51;
62631;PMS5003;48703;51.248;-0.546;2023-11-22T08:49:44;16.80;16.52;
62631;PMS5003;48703;51.248;-0.546;2023-11-22T08:52:46;15.61;13.39;
62631;PMS5003;48703;51.248;-0.546;2023-11-22T08:55:48;14.32;13.54;
62631;PMS5003;48703;51.248;-0.546;2023-11-22T08:58:49;12.87;12.29;
62631;PMS5003;48703;51.248;-0.546;2023-11-22T09:01:51;12.74;11.20;
62631;PMS5003;48703;51.248;-0.546;2023-11-22T09:04:53;10.93;10.11;
62631;PMS5003;48703;51.248;-0.546;2023-11-22T09:07:54;13.27;10.31;
62631;PMS5003;48703;51.248;-0.546;2023-11-22T09:10:56;11.01;10.36;
62631;PMS5003;48703;51.248;-0.546;2023-11-22T09:13:58;11.79;10.27;
62631;PMS5003;48703;51.248;-0.546;2023-11-22T09:16:59;12.29;11.16;
62631;PMS5003;48703;51.248;-0.546;2023-11-22T09:20:01;12.36;11.10;
62631;PMS5003;48703;51.248;-0.546;2023-11-22T09:23:03;11.20;9.53;
62631;PMS5003;48703;51.248;-0.546;2023-11-22T09:26:04;11.44;10.19;
62631;PMS5003;48703;51.248;-0.546;2023-11-22T09:29:06;13.07;11.70;
62631;PMS5003;48703;51.248;-0.546;2023-11-22T09:32:08;10.26;9.41;
62631;PMS5003;48703;51.248;-0.546;2023-11-22T09:35:10;9.53;9.19;
62631;PMS5003;48703;51.248;-0.546;2023-11-22T09:38:11;8.00;7.90;
62631;PMS5003;48703;51.248;-0.546;2023-11-22T09:41:13;10.87;8.86;
62631;PMS5003;48703;51.248;-0.546;2023-11-22T09:44:15;11.79;10.26;
62631;PMS5003;48703;51.248;-0.546;2023-11-22T09:47:16;13.33;11.07;
62631;PMS5003;48703;51.248;-0.546;2023-11-22T09:50:19;13.57;11.80;
62631;PMS5003;48703;51.248;-0.546;2023-11-22T09:53:22;13.57;12.06;
62631;PMS5003;48703;51.248;-0.546;2023-11-22T09:56:22;13.00;12.40;
62631;PMS5003;48703;51.248;-0.546;2023-11-22T09:59:23;12.14;9.67;
62631;PMS5003;48703;51.248;-0.546;2023-11-22T10:02:25;10.54;9.71;
62631;PMS5003;48703;51.248;-0.546;2023-11-22T10:05:27;9.39;8.40;
62631;PMS5003;48703;51.248;-0.546;2023-11-22T10:08:28;9.69;8.93;
62631;PMS5003;48703;51.248;-0.546;2023-11-22T10:11:30;10.33;9.59;
62631;PMS5003;48703;51.248;-0.546;2023-11-22T10:14:32;8.86;7.99;
62631;PMS5003;48703;51.248;-0.546;2023-11-22T10:17:34;10.26;10.26;
62631;PMS5003;48703;51.248;-0.546;2023-11-22T10:20:36;9.59;9.16;
62631;PMS5003;48703;51.248;-0.546;2023-11-22T10:23:37;11.17;9.26;
62631;PMS5003;48703;51.248;-0.546;2023-11-22T10:26:39;11.90;9.87;
62631;PMS5003;48703;51.248;-0.546;2023-11-22T10:29:40;11.65;10.58;
62631;PMS5003;48703;51.248;-0.546;2023-11-22T10:32:42;13.84;11.22;
62631;PMS5003;48703;51.248;-0.546;2023-11-22T10:35:43;12.36;9.54;
62631;PMS5003;48703;51.248;-0.546;2023-11-22T10:38:45;11.81;10.91;
62631;PMS5003;48703;51.248;-0.546;2023-11-22T10:41:46;10.70;8.33;
62631;PMS5003;48703;51.248;-0.546;2023-11-22T10:44:48;11.34;8.61;
62631;PMS5003;48703;51.248;-0.546;2023-11-22T10:47:49;9.90;8.50;
62631;PMS5003;48703;51.248;-0.546;2023-11-22T10:50:51;8.49;7.57;
62631;PMS5003;48703;51.248;-0.546;2023-11-22T10:53:53;9.74;8.24;
62631;PMS5003;48703;51.248;-0.546;2023-11-22T10:56:55;9.75;8.16;
62631;PMS5003;48703;51.248;-0.546;2023-11-22T10:59:56;8.37;8.37;
62631;PMS5003;48703;51.248;-0.546;2023-11-22T11:02:58;7.46;7.14;
62631;PMS5003;48703;51.248;-0.546;2023-11-22T11:06:01;7.53;7.06;
62631;PMS5003;48703;51.248;-0.546;2023-11-22T11:09:02;7.61;7.61;
62631;PMS5003;48703;51.248;-0.546;2023-11-22T11:12:03;9.17;8.36;
62631;PMS5003;48703;51.248;-0.546;2023-11-22T11:15:05;11.81;9.99;
62631;PMS5003;48703;51.248;-0.546;2023-11-22T11:18:06;10.30;9.70;
62631;PMS5003;48703;51.248;-0.546;2023-11-22T11:21:08;14.74;12.14;
62631;PMS5003;48703;51.248;-0.546;2023-11-22T11:24:09;11.89;10.80;
62631;PMS5003;48703;51.248;-0.546;2023-11-22T11:27:10;10.61;10.44;
62631;PMS5003;48703;51.248;-0.546;2023-11-22T11:30:44;10.59;9.66;
62631;PMS5003;48703;51.248;-0.546;2023-11-22T11:33:14;11.47;10.57;
62631;PMS5003;48703;51.248;-0.546;2023-11-22T11:36:16;10.53;9.47;
62631;PMS5003;48703;51.248;-0.546;2023-11-22T11:39:16;10.77;9.06;
62631;PMS5003;48703;51.248;-0.546;2023-11-22T11:42:18;10.16;9.04;
62631;PMS5003;48703;51.248;-0.546;2023-11-22T11:45:20;11.11;8.89;
62631;PMS5003;48703;51.248;-0.546;2023-11-22T11:48:21;10.94;9.84;
62631;PMS5003;48703;51.248;-0.546;2023-11-22T11:51:23;8.90;8.64;
62631;PMS5003;48703;51.248;-0.546;2023-11-22T11:54:25;10.57;9.59;
62631;PMS5003;48703;51.248;-0.546;2023-11-22T11:57:30;11.67;8.40;
62631;PMS5003;48703;51.248;-0.546;2023-11-22T12:00:28;9.79;8.93;
62631;PMS5003;48703;51.248;-0.546;2023-11-22T12:03:29;12.47;10.63;
62631;PMS5003;48703;51.248;-0.546;2023-11-22T12:06:31;11.86;11.26;
62631;PMS5003;48703;51.248;-0.546;2023-11-22T12:09:32;13.01;11.11;
62631;PMS5003;48703;51.248;-0.546;2023-11-22T12:12:34;14.30;11.80;
62631;PMS5003;48703;51.248;-0.546;2023-11-22T12:15:35;14.41;12.46;
62631;PMS5003;48703;51.248;-0.546;2023-11-22T12:18:39;16.87;13.21;
62631;PMS5003;48703;51.248;-0.546;2023-11-22T12:21:39;13.97;10.79;
62631;PMS5003;48703;51.248;-0.546;2023-11-22T12:24:40;12.17;10.88;
62631;PMS5003;48703;51.248;-0.546;2023-11-22T12:27:42;12.42;11.29;
62631;PMS5003;48703;51.248;-0.546;2023-11-22T12:30:43;12.49;10.37;
62631;PMS5003;48703;51.248;-0.546;2023-11-22T12:33:45;10.19;9.87;
62631;PMS5003;48703;51.248;-0.546;2023-11-22T12:36:46;12.43;10.36;
62631;PMS5003;48703;51.248;-0.546;2023-11-22T12:39:47;9.10;7.54;
62631;PMS5003;48703;51.248;-0.546;2023-11-22T12:42:49;9.69;8.33;
62631;PMS5003;48703;51.248;-0.546;2023-11-22T12:45:57;11.46;10.33;
62631;PMS5003;48703;51.248;-0.546;2023-11-22T12:49:04;9.67;8.70;
62631;PMS5003;48703;51.248;-0.546;2023-11-22T12:51:55;8.40;7.41;
62631;PMS5003;48703;51.248;-0.546;2023-11-22T12:54:56;6.14;5.64;
62631;PMS5003;48703;51.248;-0.546;2023-11-22T12:57:58;7.14;5.97;
62631;PMS5003;48703;51.248;-0.546;2023-11-22T13:00:59;5.19;4.97;
62631;PMS5003;48703;51.248;-0.546;2023-11-22T13:04:01;5.59;5.01;
62631;PMS5003;48703;51.248;-0.546;2023-11-22T13:07:02;8.26;6.06;
62631;PMS5003;48703;51.248;-0.546;2023-11-22T13:10:04;9.21;8.44;
62631;PMS5003;48703;51.248;-0.546;2023-11-22T13:13:06;10.39;8.79;
62631;PMS5003;48703;51.248;-0.546;2023-11-22T13:16:08;7.41;6.86;
62631;PMS5003;48703;51.248;-0.546;2023-11-22T13:19:10;8.31;7.20;
62631;PMS5003;48703;51.248;-0.546;2023-11-22T13:22:11;7.20;6.09;
62631;PMS5003;48703;51.248;-0.546;2023-11-22T13:25:13;6.39;6.03;
62631;PMS5003;48703;51.248;-0.546;2023-11-22T13:28:14;6.13;5.91;
62631;PMS5003;48703;51.248;-0.546;2023-11-22T13:31:16;7.43;6.56;
62631;PMS5003;48703;51.248;-0.546;2023-11-22T13:34:18;6.30;5.80;
62631;PMS5003;48703;51.248;-0.546;2023-11-22T13:37:22;7.01;6.76;
62631;PMS5003;48703;51.248;-0.546;2023-11-22T13:40:21;7.14;6.53;
62631;PMS5003;48703;51.248;-0.546;2023-11-22T13:43:22;9.03;6.16;
62631;PMS5003;48703;51.248;-0.546;2023-11-22T13:46:24;6.63;5.24;
62631;PMS5003;48703;51.248;-0.546;2023-11-22T13:49:26;6.64;6.30;
62631;PMS5003;48703;51.248;-0.546;2023-11-22T13:52:27;5.73;5.73;
62631;PMS5003;48703;51.248;-0.546;2023-11-22T13:55:29;7.75;7.54;
62631;PMS5003;48703;51.248;-0.546;2023-11-22T13:58:30;7.74;5.94;
62631;PMS5003;48703;51.248;-0.546;2023-11-22T14:01:32;7.36;6.99;
62631;PMS5003;48703;51.248;-0.546;2023-11-22T14:04:33;6.46;5.86;
62631;PMS5003;48703;51.248;-0.546;2023-11-22T14:07:35;5.84;5.01;
62631;PMS5003;48703;51.248;-0.546;2023-11-22T14:10:36;5.97;5.51;
62631;PMS5003;48703;51.248;-0.546;2023-11-22T14:13:38;6.96;6.09;
62631;PMS5003;48703;51.248;-0.546;2023-11-22T14:16:39;6.01;5.67;
62631;PMS5003;48703;51.248;-0.546;2023-11-22T14:19:41;6.37;5.57;
62631;PMS5003;48703;51.248;-0.546;2023-11-22T14:22:43;7.06;5.93;
62631;PMS5003;48703;51.248;-0.546;2023-11-22T14:25:44;7.71;7.13;
62631;PMS5003;48703;51.248;-0.546;2023-11-22T14:28:46;7.04;6.94;
62631;PMS5003;48703;51.248;-0.546;2023-11-22T14:31:48;6.46;5.37;
62631;PMS5003;48703;51.248;-0.546;2023-11-22T14:34:49;5.37;5.23;
62631;PMS5003;48703;51.248;-0.546;2023-11-22T14:37:51;5.94;5.94;
62631;PMS5003;48703;51.248;-0.546;2023-11-22T14:40:52;5.83;5.00;
62631;PMS5003;48703;51.248;-0.546;2023-11-22T14:43:54;6.66;6.06;
62631;PMS5003;48703;51.248;-0.546;2023-11-22T14:46:56;8.23;6.97;
62631;PMS5003;48703;51.248;-0.546;2023-11-22T14:49:57;8.09;6.24;
62631;PMS5003;48703;51.248;-0.546;2023-11-22T14:52:59;7.96;7.00;
62631;PMS5003;48703;51.248;-0.546;2023-11-22T14:56:01;8.37;7.37;
62631;PMS5003;48703;51.248;-0.546;2023-11-22T14:59:03;9.06;7.76;
62631;PMS5003;48703;51.248;-0.546;2023-11-22T15:02:04;7.64;6.30;
62631;PMS5003;48703;51.248;-0.546;2023-11-22T15:05:06;9.19;8.76;
62631;PMS5003;48703;51.248;-0.546;2023-11-22T15:08:07;8.33;7.65;
62631;PMS5003;48703;51.248;-0.546;2023-11-22T15:11:09;6.99;6.11;
62631;PMS5003;48703;51.248;-0.546;2023-11-22T15:14:11;7.90;7.20;
62631;PMS5003;48703;51.248;-0.546;2023-11-22T15:17:12;7.50;6.86;
62631;PMS5003;48703;51.248;-0.546;2023-11-22T15:20:14;7.86;7.30;
62631;PMS5003;48703;51.248;-0.546;2023-11-22T15:23:16;7.87;7.13;
62631;PMS5003;48703;51.248;-0.546;2023-11-22T15:26:17;7.66;7.23;
62631;PMS5003;48703;51.248;-0.546;2023-11-22T15:29:19;7.90;7.40;
62631;PMS5003;48703;51.248;-0.546;2023-11-22T15:32:20;7.34;6.76;
62631;PMS5003;48703;51.248;-0.546;2023-11-22T15:35:22;7.46;6.46;
62631;PMS5003;48703;51.248;-0.546;2023-11-22T15:38:23;8.27;7.49;
62631;PMS5003;48703;51.248;-0.546;2023-11-22T15:41:25;7.71;7.66;
62631;PMS5003;48703;51.248;-0.546;2023-11-22T15:44:26;7.33;7.06;
62631;PMS5003;48703;51.248;-0.546;2023-11-22T15:47:28;8.14;7.39;
62631;PMS5003;48703;51.248;-0.546;2023-11-22T15:50:30;8.47;8.17;
62631;PMS5003;48703;51.248;-0.546;2023-11-22T15:53:31;8.00;7.17;
62631;PMS5003;48703;51.248;-0.546;2023-11-22T15:56:32;9.45;8.46;
62631;PMS5003;48703;51.248;-0.546;2023-11-22T15:59:34;8.20;8.20;
62631;PMS5003;48703;51.248;-0.546;2023-11-22T16:02:36;8.60;8.46;
62631;PMS5003;48703;51.248;-0.546;2023-11-22T16:05:37;8.94;8.60;
62631;PMS5003;48703;51.248;-0.546;2023-11-22T16:08:39;9.10;8.09;
62631;PMS5003;48703;51.248;-0.546;2023-11-22T16:11:40;10.07;8.07;
62631;PMS5003;48703;51.248;-0.546;2023-11-22T16:14:42;8.53;7.74;
62631;PMS5003;48703;51.248;-0.546;2023-11-22T16:17:43;10.29;9.43;
62631;PMS5003;48703;51.248;-0.546;2023-11-22T16:20:45;12.42;11.30;
62631;PMS5003;48703;51.248;-0.546;2023-11-22T16:23:47;13.96;12.59;
62631;PMS5003;48703;51.248;-0.546;2023-11-22T16:26:48;11.07;10.63;
62631;PMS5003;48703;51.248;-0.546;2023-11-22T16:29:49;10.31;9.41;
62631;PMS5003;48703;51.248;-0.546;2023-11-22T16:32:51;12.69;10.84;
62631;PMS5003;48703;51.248;-0.546;2023-11-22T16:35:53;10.80;10.23;
62631;PMS5003;48703;51.248;-0.546;2023-11-22T16:38:54;12.96;11.56;
62631;PMS5003;48703;51.248;-0.546;2023-11-22T16:41:56;14.03;13.33;
62631;PMS5003;48703;51.248;-0.546;2023-11-22T16:44:57;14.94;14.59;
62631;PMS5003;48703;51.248;-0.546;2023-11-22T16:47:58;13.80;13.80;
62631;PMS5003;48703;51.248;-0.546;2023-11-22T16:51:00;16.01;14.64;
62631;PMS5003;48703;51.248;-0.546;2023-11-22T16:54:02;15.01;14.33;
62631;PMS5003;48703;51.248;-0.546;2023-11-22T16:57:03;14.09;13.20;
62631;PMS5003;48703;51.248;-0.546;2023-11-22T17:00:05;15.33;14.56;
62631;PMS5003;48703;51.248;-0.546;2023-11-22T17:03:06;15.09;14.49;
62631;PMS5003;48703;51.248;-0.546;2023-11-22T17:06:07;13.76;13.49;
62631;PMS5003;48703;51.248;-0.546;2023-11-22T17:09:09;15.01;13.47;
62631;PMS5003;48703;51.248;-0.546;2023-11-22T17:12:10;13.17;12.19;
62631;PMS5003;48703;51.248;-0.546;2023-11-22T17:15:11;14.01;12.52;
62631;PMS5003;48703;51.248;-0.546;2023-11-22T17:18:13;10.09;9.03;
62631;PMS5003;48703;51.248;-0.546;2023-11-22T17:21:15;10.83;10.83;
62631;PMS5003;48703;51.248;-0.546;2023-11-22T17:24:16;11.66;11.66;
62631;PMS5003;48703;51.248;-0.546;2023-11-22T17:27:18;13.56;12.41;
62631;PMS5003;48703;51.248;-0.546;2023-11-22T17:30:19;12.42;11.10;
62631;PMS5003;48703;51.248;-0.546;2023-11-22T17:33:21;11.99;11.99;
62631;PMS5003;48703;51.248;-0.546;2023-11-22T17:36:22;11.97;10.56;
62631;PMS5003;48703;51.248;-0.546;2023-11-22T17:39:24;12.96;12.44;
62631;PMS5003;48703;51.248;-0.546;2023-11-22T17:42:25;12.58;11.71;
62631;PMS5003;48703;51.248;-0.546;2023-11-22T17:45:27;15.19;13.16;
62631;PMS5003;48703;51.248;-0.546;2023-11-22T17:48:29;10.93;10.31;
62631;PMS5003;48703;51.248;-0.546;2023-11-22T17:51:30;11.63;11.63;
62631;PMS5003;48703;51.248;-0.546;2023-11-22T17:54:32;12.01;10.73;
62631;PMS5003;48703;51.248;-0.546;2023-11-22T17:57:33;12.80;12.29;
62631;PMS5003;48703;51.248;-0.546;2023-11-22T18:00:35;13.43;12.96;
62631;PMS5003;48703;51.248;-0.546;2023-11-22T18:03:36;16.39;14.25;
62631;PMS5003;48703;51.248;-0.546;2023-11-22T18:06:38;12.93;12.20;
62631;PMS5003;48703;51.248;-0.546;2023-11-22T18:09:39;20.20;18.75;
62631;PMS5003;48703;51.248;-0.546;2023-11-22T18:12:40;27.22;23.09;
62631;PMS5003;48703;51.248;-0.546;2023-11-22T18:15:41;34.40;32.73;
62631;PMS5003;48703;51.248;-0.546;2023-11-22T18:18:42;35.39;33.86;